Ms Folla 2 — LLPD — position and weather

sailwx.info

Track history (hours):
 
Tides and Currents Weather Stations Pressure Air Temp Water Temp Dewpoint Dewpoint Depression Visibility Wind Speed Wind Dir Waves Ship Positions

Ms Folla 2

Last reported at 2017-Aug-23 04:01 UTC. Time now 2017-Aug-23 04:24 UTC.
Position N 65°07' E 011°48'.

Length 52 m; draft 5.5 m.

Type: Fishing. MMSI: 258253000.

Date/timePositionNaut miles runAvg speedWind from/ knotsBaromVisibWave heightAir tempDewpointWater temp
2017-Aug-23 04:01N 65°07' E 011°48'610.8
2017-Aug-23 03:30N 65°12' E 011°53'510.8
2017-Aug-23 03:00N 65°17' E 011°58'510.9
2017-Aug-23 02:30N 65°22' E 012°04'2 2.9
2017-Aug-23 01:43N 65°23' E 012°09'5 9.9
2017-Aug-23 01:16N 65°27' E 012°10'2 6.7
2017-Aug-23 00:54N 65°30' E 012°11'0 0.8
2017-Aug-23 00:27N 65°30' E 012°10'0 0.0
2017-Aug-22 23:59N 65°30' E 012°10'7 9.1
2017-Aug-22 23:12N 65°36' E 012°14'310.7
2017-Aug-22 22:55N 65°39' E 012°15'1010.9
2017-Aug-22 21:58N 65°50' E 012°21'510.9
2017-Aug-22 21:30N 65°55' E 012°22'611.1
2017-Aug-22 21:00N 65°59' E 012°29'611.6
2017-Aug-22 20:31N 66°04' E 012°38'611.4
2017-Aug-22 20:00N 66°08' E 012°47'510.9
2017-Aug-22 19:30N 66°13' E 012°53'510.9
2017-Aug-22 19:00N 66°18' E 012°57'2 4.8
2017-Aug-22 18:30N 66°20' E 013°00'4 8.6
2017-Aug-22 18:01N 66°25' E 012°58'611.0
2017-Aug-22 17:30N 66°30' E 012°59'510.1
2017-Aug-22 17:00N 66°35' E 013°05'510.7
2017-Aug-22 16:30N 66°40' E 013°07'611.2
2017-Aug-22 16:00N 66°45' E 013°12'3 6.6
2017-Aug-22 15:30N 66°48' E 013°14'1 2.8
2017-Aug-22 15:01N 66°50' E 013°16'5 9.9
2017-Aug-22 14:30N 66°54' E 013°20'611.1
2017-Aug-22 14:00N 66°60' E 013°22'611.0
2017-Aug-22 13:30N 67°05' E 013°26'510.7
2017-Aug-22 13:00N 67°10' E 013°30'510.4
2017-Aug-22 12:30N 67°15' E 013°33'510.6
2017-Aug-22 12:00N 67°20' E 013°37'510.7
2017-Aug-22 11:30N 67°26' E 013°41'510.5
2017-Aug-22 11:01N 67°31' E 013°44'510.6
2017-Aug-22 10:30N 67°36' E 013°47'510.6
2017-Aug-22 10:00N 67°41' E 013°50'510.4
2017-Aug-22 09:30N 67°46' E 013°53'510.3
2017-Aug-22 09:00N 67°51' E 013°56'510.6
2017-Aug-22 08:30N 67°56' E 013°60'510.8
2017-Aug-22 08:00N 68°01' E 014°03'511.2
2017-Aug-22 07:30N 68°07' E 014°06'611.1
2017-Aug-22 07:00N 68°12' E 014°10'612.2
2017-Aug-22 06:30N 68°18' E 014°17'611.3
2017-Aug-22 06:00N 68°23' E 014°18'510.8
2017-Aug-22 05:30N 68°29' E 014°19'510.6
2017-Aug-22 05:00N 68°34' E 014°21'510.6
2017-Aug-22 04:30N 68°39' E 014°23'5 9.2
2017-Aug-22 04:00N 68°44' E 014°23'5 9.7
2017-Aug-22 03:30N 68°48' E 014°27'510.3
2017-Aug-22 03:00N 68°51' E 014°39'510.5
2017-Aug-22 02:30N 68°52' E 014°54'5 9.7
2017-Aug-22 02:00N 68°55' E 015°04'0 0.1
2017-Aug-22 01:30N 68°55' E 015°04'0 0.0
2017-Aug-22 01:00N 68°55' E 015°04'0 0.0
2017-Aug-22 00:30N 68°55' E 015°04'0 0.0
2017-Aug-22 00:00N 68°55' E 015°04'0 0.0
2017-Aug-21 23:30N 68°55' E 015°04'0 0.0
2017-Aug-21 23:00N 68°55' E 015°04'0 0.0
2017-Aug-21 22:30N 68°55' E 015°04'0 0.0
2017-Aug-21 22:00N 68°55' E 015°04'0 0.0
2017-Aug-21 21:31N 68°55' E 015°04'0 0.0
2017-Aug-21 21:00N 68°55' E 015°04'0 0.0
2017-Aug-21 20:30N 68°55' E 015°04'0 0.0
2017-Aug-21 20:00N 68°55' E 015°04'0 0.0
2017-Aug-21 19:30N 68°55' E 015°04'0 0.0
2017-Aug-21 18:59N 68°55' E 015°04'0 0.3
2017-Aug-21 18:30N 68°55' E 015°03'1 2.7
2017-Aug-21 18:01N 68°55' E 015°00'611.3
2017-Aug-21 17:31N 69°01' E 015°01'5 9.5
2017-Aug-21 17:00N 69°01' E 015°14'5 9.6
2017-Aug-21 16:31N 68°57' E 015°20'611.0
2017-Aug-21 16:00N 68°52' E 015°29'511.0
2017-Aug-21 15:30N 68°57' E 015°36'5 9.9
2017-Aug-21 15:00N 68°59' E 015°49'511.2
2017-Aug-21 14:30N 68°58' E 016°04'611.7
2017-Aug-21 14:00N 68°55' E 016°19'612.1
2017-Aug-21 13:31N 68°52' E 016°33'510.6
2017-Aug-21 13:00N 68°48' E 016°41'611.0
2017-Aug-21 12:30N 68°42' E 016°40'612.1
2017-Aug-21 12:00N 68°37' E 016°33'510.2
2017-Aug-21 11:30N 68°34' E 016°22'511.1
2017-Aug-21 11:00N 68°31' E 016°09'611.0
2017-Aug-21 10:29N 68°25' E 016°04'3 6.9
2017-Aug-21 09:59N 68°24' E 016°13'1 2.5
2017-Aug-21 09:30N 68°24' E 016°16'612.0
2017-Aug-21 09:00N 68°25' E 016°32'611.7
2017-Aug-21 08:30N 68°25' E 016°48'5 9.0
2017-Aug-21 08:00N 68°21' E 016°54'2 3.3
2017-Aug-21 07:30N 68°22' E 016°57'611.0
2017-Aug-21 07:00N 68°25' E 017°10'510.8
2017-Aug-21 06:31N 68°25' E 017°25'0 0.8
2017-Aug-21 06:00N 68°25' E 017°26'2 3.0
2017-Aug-21 05:30N 68°26' E 017°22'611.6
2017-Aug-21 05:00N 68°26' E 017°06'611.4
2017-Aug-21 04:30N 68°26' E 016°51'611.3
2017-Aug-21 04:00N 68°26' E 016°35'510.6
2017-Aug-21 03:30N 68°24' E 016°21'510.8
2017-Aug-21 03:00N 68°23' E 016°07'4 7.1
2017-Aug-21 02:30N 68°25' E 016°00'611.6
2017-Aug-21 02:00N 68°30' E 016°09'510.9
2017-Aug-21 01:30N 68°34' E 016°20'5 9.2
2017-Aug-21 01:00N 68°35' E 016°32'1 1.3
2017-Aug-21 00:30N 68°35' E 016°34'4 9.1
2017-Aug-21 00:00N 68°39' E 016°37'611.7
2017-Aug-20 23:30N 68°44' E 016°45'611.8
2017-Aug-20 23:00N 68°50' E 016°54'611.7
2017-Aug-20 22:30N 68°54' E 017°03'611.6
2017-Aug-20 22:00N 68°59' E 017°12'612.0
2017-Aug-20 21:30N 69°04' E 017°22'611.8
2017-Aug-20 21:00N 69°07' E 017°36'612.0
2017-Aug-20 20:30N 69°09' E 017°52'4 9.0
2017-Aug-20 20:00N 69°13' E 017°59'5 9.1
2017-Aug-20 19:30N 69°18' E 017°58'611.1
2017-Aug-20 19:00N 69°23' E 018°05'611.6
2017-Aug-20 18:30N 69°28' E 018°09'611.5
2017-Aug-20 18:00N 69°31' E 018°24'611.9
2017-Aug-20 17:30N 69°33' E 018°40'611.4
2017-Aug-20 17:00N 69°36' E 018°53'611.1
2017-Aug-20 16:30N 69°41' E 019°01'611.1
2017-Aug-20 16:00N 69°46' E 019°10'611.8
2017-Aug-20 15:30N 69°49' E 019°25'611.9
2017-Aug-20 15:00N 69°51' E 019°41'612.1
2017-Aug-20 14:30N 69°54' E 019°56'612.0
2017-Aug-20 14:00N 69°58' E 020°10'511.2
2017-Aug-20 13:30N 69°60' E 020°24'611.8
2017-Aug-20 13:00N 70°02' E 020°41'611.1
2017-Aug-20 12:30N 70°05' E 020°55'611.9
2017-Aug-20 12:00N 70°10' E 021°03'611.3
2017-Aug-20 11:30N 70°15' E 021°12'611.2
2017-Aug-20 10:59N 70°18' E 021°25'510.9
2017-Aug-20 10:30N 70°22' E 021°36'5 9.3
2017-Aug-20 10:00N 70°22' E 021°50'611.8
2017-Aug-20 09:30N 70°20' E 022°05'611.1
2017-Aug-20 09:00N 70°16' E 022°19'2 4.3
2017-Aug-20 08:30N 70°14' E 022°21'2 4.7
2017-Aug-20 08:00N 70°16' E 022°19'510.0
2017-Aug-20 07:30N 70°19' E 022°06'611.0
2017-Aug-20 06:59N 70°22' E 021°52'5 9.4
2017-Aug-20 06:30N 70°23' E 021°38'611.3
2017-Aug-20 06:00N 70°19' E 021°27'510.4
2017-Aug-20 05:30N 70°15' E 021°15'510.4
2017-Aug-20 05:00N 70°11' E 021°06'510.5
2017-Aug-20 04:29N 70°07' E 020°58'611.0
2017-Aug-20 03:59N 70°03' E 020°47'510.9
2017-Aug-20 03:29N 70°01' E 020°32'611.7
2017-Aug-20 03:00N 69°59' E 020°16'510.8
2017-Aug-20 02:30N 69°56' E 020°03'510.5
2017-Aug-20 02:00N 69°53' E 019°51'610.8
2017-Aug-20 01:30N 69°50' E 019°37'511.0
2017-Aug-20 01:00N 69°48' E 019°22'611.0
2017-Aug-20 00:30N 69°45' E 019°08'611.1
2017-Aug-20 00:00N 69°41' E 018°60'0 0.7
2017-Aug-19 23:30N 69°41' E 018°59'0 0.2
2017-Aug-19 23:00N 69°41' E 018°59'0 0.2
2017-Aug-19 22:30N 69°41' E 018°59'3 5.3
2017-Aug-19 22:00N 69°38' E 018°57'611.2
2017-Aug-19 21:30N 69°34' E 018°47'612.4
2017-Aug-19 21:00N 69°32' E 018°30'611.1
2017-Aug-19 20:30N 69°29' E 018°16'5 9.9
2017-Aug-19 20:00N 69°25' E 018°07'510.6
2017-Aug-19 19:30N 69°20' E 018°03'510.4
2017-Aug-19 19:00N 69°15' E 017°58'1 2.6
2017-Aug-19 18:30N 69°14' E 017°58'0 0.0
2017-Aug-19 18:00N 69°14' E 017°58'1 1.2
2017-Aug-19 17:30N 69°14' E 017°59'3 6.9
2017-Aug-19 17:00N 69°10' E 017°58'510.8
2017-Aug-19 16:30N 69°08' E 017°44'511.0
2017-Aug-19 16:00N 69°06' E 017°29'611.0
2017-Aug-19 15:30N 69°02' E 017°18'611.2
2017-Aug-19 15:00N 68°58' E 017°08'1111.2
2017-Aug-19 14:00N 68°50' E 016°45'5 9.8
2017-Aug-19 13:30N 68°47' E 016°36'1 1.3
2017-Aug-19 13:00N 68°47' E 016°36'1 2.6
2017-Aug-19 12:30N 68°48' E 016°33'0 0.0
2017-Aug-19 11:59N 68°48' E 016°33'0 0.0
2017-Aug-19 11:30N 68°48' E 016°33'0 0.0
2017-Aug-19 11:00N 68°48' E 016°33'3 6.4
2017-Aug-19 10:29N 68°51' E 016°35'510.8
2017-Aug-19 10:00N 68°54' E 016°23'510.8
2017-Aug-19 09:30N 68°57' E 016°10'611.0
2017-Aug-19 08:59N 68°59' E 015°56'510.5
2017-Aug-19 08:30N 68°58' E 015°41'1 2.0
2017-Aug-19 08:00N 68°58' E 015°39'5 9.5
2017-Aug-19 07:29N 68°54' E 015°33'510.9
2017-Aug-19 07:00N 68°49' E 015°27'611.4
2017-Aug-19 06:30N 68°43' E 015°25'1 2.5
2017-Aug-19 06:00N 68°42' E 015°25'0 0.0
2017-Aug-19 05:30N 68°42' E 015°25'0 0.0
2017-Aug-19 05:00N 68°42' E 015°25'1 1.0
2017-Aug-19 04:29N 68°41' E 015°26'510.9
2017-Aug-19 04:00N 68°37' E 015°18'510.8
2017-Aug-19 03:30N 68°32' E 015°10'5 9.9
2017-Aug-19 03:00N 68°28' E 015°12'5 9.9
2017-Aug-19 02:30N 68°23' E 015°05'510.8
2017-Aug-19 02:00N 68°18' E 014°58'510.6
2017-Aug-19 01:30N 68°13' E 014°53'5 9.6
2017-Aug-19 01:00N 68°14' E 014°40'2 4.5
2017-Aug-19 00:30N 68°14' E 014°35'2 3.6
2017-Aug-18 23:59N 68°12' E 014°32'510.6
2017-Aug-18 23:29N 68°10' E 014°19'510.8
2017-Aug-18 23:00N 68°07' E 014°07'510.4
2017-Aug-18 22:30N 68°06' E 013°54'510.3
2017-Aug-18 22:00N 68°04' E 013°41'4 9.0
2017-Aug-18 21:30N 68°08' E 013°34'1 1.0
2017-Aug-18 21:00N 68°08' E 013°36'1 1.1
2017-Aug-18 20:30N 68°08' E 013°37'0 0.0
2017-Aug-18 20:00N 68°08' E 013°37'0 0.8
2017-Aug-18 19:29N 68°08' E 013°36'510.3
2017-Aug-18 19:00N 68°03' E 013°38'510.7
2017-Aug-18 18:30N 67°58' E 013°42'611.0
2017-Aug-18 18:00N 67°52' E 013°47'611.4
2017-Aug-18 17:30N 67°47' E 013°52'511.2
2017-Aug-18 17:00N 67°42' E 013°56'611.5
2017-Aug-18 16:30N 67°36' E 014°01'611.5
2017-Aug-18 16:00N 67°31' E 014°06'611.2
2017-Aug-18 15:30N 67°25' E 014°10'611.2
2017-Aug-18 15:00N 67°20' E 014°13'5 9.2
2017-Aug-18 14:30N 67°16' E 014°21'1 0.6
2017-Aug-18 13:30N 67°16' E 014°19'510.6
2017-Aug-18 13:00N 67°12' E 014°09'511.0
2017-Aug-18 12:30N 67°08' E 014°01'511.0
2017-Aug-18 12:00N 67°04' E 013°52'611.0
2017-Aug-18 11:30N 67°00' E 013°41'510.6
2017-Aug-18 11:00N 66°57' E 013°30'510.1
2017-Aug-18 10:30N 66°53' E 013°23'510.9
2017-Aug-18 10:00N 66°49' E 013°15'3 5.4
2017-Aug-18 09:30N 66°47' E 013°10'510.3
2017-Aug-18 09:00N 66°45' E 012°58'510.7
2017-Aug-18 08:30N 66°46' E 012°45'510.4
2017-Aug-18 08:00N 66°46' E 012°31'1 2.3
2017-Aug-18 07:30N 66°46' E 012°29'4 7.1
2017-Aug-18 06:59N 66°42' E 012°33'510.8
2017-Aug-18 06:30N 66°38' E 012°41'611.5
2017-Aug-18 06:00N 66°33' E 012°44'611.3
2017-Aug-18 05:30N 66°27' E 012°47'4 7.1
2017-Aug-18 05:00N 66°24' E 012°50'0 0.0
2017-Aug-18 04:30N 66°24' E 012°50'0 0.0
2017-Aug-18 04:00N 66°24' E 012°50'4 7.4
2017-Aug-18 03:30N 66°22' E 012°42'611.5
2017-Aug-18 03:00N 66°16' E 012°39'611.8
2017-Aug-18 02:30N 66°10' E 012°40'611.2
2017-Aug-18 02:00N 66°05' E 012°40'3 6.2
2017-Aug-18 01:30N 66°01' E 012°38'2 4.1
2017-Aug-18 01:00N 66°01' E 012°34'611.2
2017-Aug-18 00:30N 65°56' E 012°25'510.9
2017-Aug-18 00:00N 65°51' E 012°22'611.1
2017-Aug-17 23:30N 65°46' E 012°19'611.5
2017-Aug-17 23:00N 65°40' E 012°16'711.5
2017-Aug-17 22:26N 65°34' E 012°13'511.0
2017-Aug-17 21:59N 65°29' E 012°13'0 0.9
2017-Aug-17 21:30N 65°28' E 012°12'4 8.2
2017-Aug-17 21:00N 65°25' E 012°08'611.0
2017-Aug-17 20:30N 65°20' E 012°02'611.6
2017-Aug-17 20:00N 65°15' E 011°56'611.3
2017-Aug-17 19:30N 65°09' E 011°50'611.3
2017-Aug-17 19:00N 65°04' E 011°45'510.8
2017-Aug-17 18:30N 65°00' E 011°37'510.9
2017-Aug-17 18:00N 64°56' E 011°28'611.7
2017-Aug-17 17:30N 64°53' E 011°17'2 4.4
2017-Aug-17 17:00N 64°51' E 011°13'611.4
2017-Aug-17 16:30N 64°47' E 011°05'611.0
2017-Aug-17 16:00N 64°41' E 011°07'510.3
2017-Aug-17 15:30N 64°37' E 011°15'510.9
2017-Aug-17 15:00N 64°33' E 011°23'5 9.1
2017-Aug-17 14:30N 64°29' E 011°25'2 4.8
2017-Aug-17 14:00N 64°28' E 011°30'0 0.0
2017-Aug-17 13:30N 64°28' E 011°30'0 0.0
2017-Aug-17 13:00N 64°28' E 011°30'0 0.0
2017-Aug-17 12:30N 64°28' E 011°30'0 0.0
2017-Aug-17 12:00N 64°28' E 011°30'0 0.0
2017-Aug-17 11:30N 64°28' E 011°30'0 0.0
2017-Aug-17 11:00N 64°28' E 011°30'0 0.0
2017-Aug-17 10:29N 64°28' E 011°30'0 0.0
2017-Aug-17 10:00N 64°28' E 011°30'0 0.0
2017-Aug-17 09:29N 64°28' E 011°30'0 0.0
2017-Aug-17 09:00N 64°28' E 011°30'0 0.0
2017-Aug-17 08:30N 64°28' E 011°30'0 0.0
2017-Aug-17 08:00N 64°28' E 011°30'0 0.0
2017-Aug-17 07:29N 64°28' E 011°30'0 0.0
2017-Aug-17 07:00N 64°28' E 011°30'0 0.0
2017-Aug-17 06:30N 64°28' E 011°30'0 0.0
2017-Aug-17 06:00N 64°28' E 011°30'0 0.0
2017-Aug-17 05:30N 64°28' E 011°30'0 0.0
2017-Aug-17 05:00N 64°28' E 011°30'0 0.0
2017-Aug-17 04:30N 64°28' E 011°30'0 0.0
2017-Aug-17 04:00N 64°28' E 011°30'0 0.0
2017-Aug-17 03:30N 64°28' E 011°30'0 0.0
2017-Aug-17 03:00N 64°28' E 011°30'0 0.0
2017-Aug-17 02:30N 64°28' E 011°30'0 0.0
2017-Aug-17 02:00N 64°28' E 011°30'0 0.0
2017-Aug-17 01:30N 64°28' E 011°30'0 0.0
2017-Aug-17 01:00N 64°28' E 011°30'0 0.0
2017-Aug-17 00:30N 64°28' E 011°30'0 0.0
2017-Aug-17 00:00N 64°28' E 011°30'0 0.0
2017-Aug-16 23:30N 64°28' E 011°30'0 0.0
2017-Aug-16 23:00N 64°28' E 011°30'2 3.7
2017-Aug-16 22:30N 64°27' E 011°26'510.8
2017-Aug-16 22:00N 64°30' E 011°15'510.4
2017-Aug-16 21:30N 64°33' E 011°07'510.0
2017-Aug-16 21:00N 64°36' E 010°58'611.4
2017-Aug-16 20:30N 64°34' E 010°45'511.1
2017-Aug-16 20:00N 64°31' E 010°35'611.5
2017-Aug-16 19:30N 64°26' E 010°27'611.1
2017-Aug-16 19:00N 64°21' E 010°27'511.2
2017-Aug-16 18:30N 64°16' E 010°19'611.3
2017-Aug-16 18:00N 64°12' E 010°11'611.7
2017-Aug-16 17:30N 64°07' E 010°02'611.9
2017-Aug-16 17:00N 64°04' E 009°51'611.2
2017-Aug-16 16:29N 63°58' E 009°47'511.3
2017-Aug-16 16:00N 63°53' E 009°44'611.8
2017-Aug-16 15:30N 63°48' E 009°35'611.5
2017-Aug-16 15:00N 63°43' E 009°32'510.7
2017-Aug-16 14:30N 63°38' E 009°30'510.8
2017-Aug-16 14:00N 63°39' E 009°42'5 9.3
2017-Aug-16 13:29N 63°36' E 009°50'611.8
2017-Aug-16 13:00N 63°31' E 009°55'510.9
2017-Aug-16 12:30N 63°28' E 010°06'611.3
2017-Aug-16 12:00N 63°28' E 010°19'3 6.1
2017-Aug-16 11:30N 63°27' E 010°25'0 0.0
2017-Aug-16 11:00N 63°27' E 010°25'0 0.0
2017-Aug-16 10:30N 63°27' E 010°25'0 0.0
2017-Aug-16 10:00N 63°27' E 010°25'0 0.0
2017-Aug-16 09:30N 63°27' E 010°25'0 0.9
2017-Aug-16 09:00N 63°27' E 010°25'611.6
2017-Aug-16 08:30N 63°28' E 010°12'611.9
2017-Aug-16 08:00N 63°29' E 009°59'610.7
2017-Aug-16 07:30N 63°33' E 009°51'611.3
2017-Aug-16 07:00N 63°39' E 009°46'510.9
2017-Aug-16 06:30N 63°38' E 009°34'3 6.7
2017-Aug-16 06:00N 63°41' E 009°29'611.0
2017-Aug-16 05:30N 63°46' E 009°33'611.3
2017-Aug-16 05:00N 63°51' E 009°39'611.0
2017-Aug-16 04:29N 63°54' E 009°50'611.3
2017-Aug-16 04:00N 63°59' E 009°56'510.9
2017-Aug-16 03:30N 64°03' E 010°03'5 9.3
2017-Aug-16 03:00N 64°08' E 010°05'510.8
2017-Aug-16 02:30N 64°12' E 010°11'510.3
2017-Aug-16 02:00N 64°16' E 010°20'610.9
2017-Aug-16 01:30N 64°22' E 010°22'510.7
2017-Aug-16 01:00N 64°27' E 010°27'510.7
2017-Aug-16 00:30N 64°31' E 010°35'510.5
2017-Aug-16 00:00N 64°34' E 010°44'4 8.4
2017-Aug-15 23:30N 64°32' E 010°52'0 0.0
2017-Aug-15 23:00N 64°32' E 010°52'0 0.0
2017-Aug-15 22:30N 64°32' E 010°52'1 2.2
2017-Aug-15 22:00N 64°34' E 010°53'510.7
2017-Aug-15 21:30N 64°39' E 010°51'611.0
2017-Aug-15 20:59N 64°44' E 010°58'511.0
2017-Aug-15 20:30N 64°48' E 011°06'510.8
2017-Aug-15 20:00N 64°52' E 011°15'0 0.9
2017-Aug-15 19:30N 64°52' E 011°16'1 1.0
2017-Aug-15 19:00N 64°51' E 011°17'0 0.0
2017-Aug-15 18:30N 64°51' E 011°17'0 0.0
2017-Aug-15 18:00N 64°51' E 011°17'4 8.6
2017-Aug-15 17:30N 64°55' E 011°23'511.0
2017-Aug-15 17:00N 64°58' E 011°33'510.8
2017-Aug-15 16:30N 65°02' E 011°42'510.9
2017-Aug-15 16:00N 65°07' E 011°48'611.0
2017-Aug-15 15:30N 65°12' E 011°53'510.6
2017-Aug-15 15:00N 65°17' E 011°58'611.0
2017-Aug-15 14:30N 65°22' E 012°04'611.1
2017-Aug-15 13:56N 65°27' E 012°11'5 9.1
2017-Aug-15 13:22N 65°32' E 012°13'410.9
2017-Aug-15 12:57N 65°37' E 012°14'510.8
2017-Aug-15 12:30N 65°42' E 012°16'811.1
2017-Aug-15 11:45N 65°50' E 012°21'311.1
2017-Aug-15 11:30N 65°53' E 012°22'610.8
2017-Aug-15 11:00N 65°58' E 012°27'511.1
2017-Aug-15 10:30N 66°02' E 012°36'2 3.9
2017-Aug-15 10:00N 66°03' E 012°39'510.9
2017-Aug-15 09:30N 66°08' E 012°46'510.8
2017-Aug-15 09:00N 66°13' E 012°52'610.9
2017-Aug-15 08:30N 66°18' E 012°56'510.3
2017-Aug-15 08:00N 66°23' E 012°58'510.0
2017-Aug-15 07:30N 66°28' E 012°59'5 9.8
2017-Aug-15 07:00N 66°33' E 013°01'5 9.8
2017-Aug-15 06:30N 66°37' E 013°05'510.4
2017-Aug-15 06:00N 66°42' E 013°09'510.2
2017-Aug-15 05:30N 66°47' E 013°14'4 7.7
2017-Aug-15 05:00N 66°51' E 013°18'5 9.7
2017-Aug-15 04:30N 66°55' E 013°20'510.4
2017-Aug-15 04:00N 67°00' E 013°21'510.5
2017-Aug-15 03:30N 67°06' E 013°22'510.1
2017-Aug-15 03:00N 67°11' E 013°23'510.2
2017-Aug-15 02:30N 67°16' E 013°24'510.1
2017-Aug-15 02:00N 67°21' E 013°26'510.2
2017-Aug-15 01:30N 67°26' E 013°27'510.3
2017-Aug-15 01:00N 67°31' E 013°28'510.4
2017-Aug-15 00:30N 67°36' E 013°29'510.3
2017-Aug-15 00:00N 67°41' E 013°30'510.5
2017-Aug-14 23:30N 67°47' E 013°32'510.5
2017-Aug-14 23:00N 67°52' E 013°33'510.4
2017-Aug-14 22:30N 67°57' E 013°34'510.4
2017-Aug-14 22:00N 68°02' E 013°35'510.5
2017-Aug-14 21:30N 68°07' E 013°34'0 0.3
2017-Aug-14 21:00N 68°08' E 013°34'0 0.0
2017-Aug-14 20:30N 68°08' E 013°34'2 5.0
2017-Aug-14 20:00N 68°05' E 013°36'4 8.2
2017-Aug-14 19:30N 68°05' E 013°47'510.2
2017-Aug-14 19:00N 68°06' E 013°59'5 9.9
2017-Aug-14 18:30N 68°08' E 014°12'510.1
2017-Aug-14 17:59N 68°11' E 014°23'510.1
2017-Aug-14 17:30N 68°13' E 014°36'5 9.5
2017-Aug-14 17:00N 68°13' E 014°48'4 8.7
2017-Aug-14 16:29N 68°15' E 014°59'510.1
2017-Aug-14 16:00N 68°18' E 015°10'5 9.6
2017-Aug-14 15:30N 68°20' E 015°21'19 8.1
2017-Aug-14 13:06N 68°24' E 016°13'0 0.0
2017-Aug-14 13:00N 68°24' E 016°13'0 0.0
2017-Aug-14 12:30N 68°24' E 016°13'2 3.8
2017-Aug-14 11:59N 68°23' E 016°09'4 8.0
2017-Aug-14 11:30N 68°27' E 016°05'510.4
2017-Aug-14 11:00N 68°31' E 016°11'510.2
2017-Aug-14 10:30N 68°34' E 016°23'4 8.9
2017-Aug-14 10:00N 68°36' E 016°33'510.2
2017-Aug-14 09:30N 68°41' E 016°39'5 9.7
2017-Aug-14 09:00N 68°45' E 016°37'3 5.2
2017-Aug-14 08:30N 68°48' E 016°33'3 6.1
2017-Aug-14 08:00N 68°50' E 016°39'510.6
2017-Aug-14 07:30N 68°53' E 016°50'510.3
2017-Aug-14 07:00N 68°56' E 017°01'5 9.5
2017-Aug-14 06:30N 68°59' E 017°11'5 9.5
2017-Aug-14 06:00N 69°03' E 017°20'5 9.5
2017-Aug-14 05:30N 69°06' E 017°30'510.0
2017-Aug-14 05:00N 69°08' E 017°43'5 9.9
2017-Aug-14 04:30N 69°10' E 017°56'4 7.7
2017-Aug-14 04:00N 69°14' E 017°58'5 9.7
2017-Aug-14 03:30N 69°19' E 017°58'5 9.2
2017-Aug-14 02:59N 69°23' E 018°05'510.0
2017-Aug-14 02:29N 69°28' E 018°07'5 9.7
2017-Aug-14 01:59N 69°30' E 018°19'510.1
2017-Aug-14 01:30N 69°32' E 018°32'4 8.6
2017-Aug-14 01:00N 69°33' E 018°44'4 8.9
2017-Aug-14 00:30N 69°36' E 018°53'5 9.4
2017-Aug-14 00:00N 69°40' E 019°00'510.1
2017-Aug-13 23:30N 69°45' E 019°07'510.2
2017-Aug-13 23:00N 69°48' E 019°19'510.2
2017-Aug-13 22:30N 69°50' E 019°33'510.4
2017-Aug-13 22:00N 69°52' E 019°47'510.5
2017-Aug-13 21:30N 69°55' E 019°59'510.1
2017-Aug-13 21:00N 69°58' E 020°11'510.2
2017-Aug-13 20:30N 69°60' E 020°24'510.8
2017-Aug-13 20:00N 70°02' E 020°39'510.9
2017-Aug-13 19:30N 70°04' E 020°54'510.6
2017-Aug-13 19:00N 70°09' E 021°01'510.4
2017-Aug-13 18:30N 70°13' E 021°09'510.5
2017-Aug-13 17:59N 70°17' E 021°20'510.2
2017-Aug-13 17:30N 70°20' E 021°31'5 9.9
2017-Aug-13 17:00N 70°24' E 021°42'510.0
2017-Aug-13 16:30N 70°22' E 021°56'510.5
2017-Aug-13 16:00N 70°19' E 022°09'5 9.9
2017-Aug-13 15:30N 70°16' E 022°20'1 2.9
2017-Aug-13 15:00N 70°14' E 022°21'0 0.0
2017-Aug-13 14:30N 70°14' E 022°21'0 0.0
2017-Aug-13 14:00N 70°14' E 022°21'0 0.0
2017-Aug-13 13:30N 70°14' E 022°21'0 0.0
2017-Aug-13 13:00N 70°14' E 022°21'0 0.0
2017-Aug-13 12:30N 70°14' E 022°21'0 0.0
2017-Aug-13 12:00N 70°14' E 022°21'0 0.0
2017-Aug-13 11:30N 70°14' E 022°21'0 0.0
2017-Aug-13 11:00N 70°14' E 022°21'0 0.0
2017-Aug-13 10:30N 70°14' E 022°21'0 0.0
2017-Aug-13 10:00N 70°14' E 022°21'0 0.0
2017-Aug-13 09:30N 70°14' E 022°21'0 0.0
2017-Aug-13 09:00N 70°14' E 022°21'0 0.0
2017-Aug-13 08:30N 70°14' E 022°21'0 0.0
2017-Aug-13 07:59N 70°14' E 022°21'0 0.0
2017-Aug-13 07:30N 70°14' E 022°21'0 0.0
2017-Aug-13 07:00N 70°14' E 022°21'0 0.0
2017-Aug-13 06:30N 70°14' E 022°21'5 9.4
2017-Aug-13 06:00N 70°18' E 022°12'611.6
2017-Aug-13 05:30N 70°21' E 021°58'611.8
2017-Aug-13 05:00N 70°24' E 021°42'612.0
2017-Aug-13 04:30N 70°20' E 021°29'  
Track history (hours):
 
Tides and Currents Weather Stations Pressure Air Temp Water Temp Dewpoint Dewpoint Depression Visibility Wind Speed Wind Dir Waves Ship Positions

Ms Folla 2

Last reported at 2017-Aug-23 04:01 UTC. Time now 2017-Aug-23 04:24 UTC.
Position N 65°07' E 011°48'.

Length 52 m; draft 5.5 m.

Type: Fishing. MMSI: 258253000.

Date/timePositionNaut miles runAvg speedWind from/ knotsBaromVisibWave heightAir tempDewpointWater temp
2017-Aug-23 04:01N 65°07' E 011°48'610.8
2017-Aug-23 03:30N 65°12' E 011°53'510.8
2017-Aug-23 03:00N 65°17' E 011°58'510.9
2017-Aug-23 02:30N 65°22' E 012°04'2 2.9
2017-Aug-23 01:43N 65°23' E 012°09'5 9.9
2017-Aug-23 01:16N 65°27' E 012°10'2 6.7
2017-Aug-23 00:54N 65°30' E 012°11'0 0.8
2017-Aug-23 00:27N 65°30' E 012°10'0 0.0
2017-Aug-22 23:59N 65°30' E 012°10'7 9.1
2017-Aug-22 23:12N 65°36' E 012°14'310.7
2017-Aug-22 22:55N 65°39' E 012°15'1010.9
2017-Aug-22 21:58N 65°50' E 012°21'510.9
2017-Aug-22 21:30N 65°55' E 012°22'611.1
2017-Aug-22 21:00N 65°59' E 012°29'611.6
2017-Aug-22 20:31N 66°04' E 012°38'611.4
2017-Aug-22 20:00N 66°08' E 012°47'510.9
2017-Aug-22 19:30N 66°13' E 012°53'510.9
2017-Aug-22 19:00N 66°18' E 012°57'2 4.8
2017-Aug-22 18:30N 66°20' E 013°00'4 8.6
2017-Aug-22 18:01N 66°25' E 012°58'611.0
2017-Aug-22 17:30N 66°30' E 012°59'510.1
2017-Aug-22 17:00N 66°35' E 013°05'510.7
2017-Aug-22 16:30N 66°40' E 013°07'611.2
2017-Aug-22 16:00N 66°45' E 013°12'3 6.6
2017-Aug-22 15:30N 66°48' E 013°14'1 2.8
2017-Aug-22 15:01N 66°50' E 013°16'5 9.9
2017-Aug-22 14:30N 66°54' E 013°20'611.1
2017-Aug-22 14:00N 66°60' E 013°22'611.0
2017-Aug-22 13:30N 67°05' E 013°26'510.7
2017-Aug-22 13:00N 67°10' E 013°30'510.4
2017-Aug-22 12:30N 67°15' E 013°33'510.6
2017-Aug-22 12:00N 67°20' E 013°37'510.7
2017-Aug-22 11:30N 67°26' E 013°41'510.5
2017-Aug-22 11:01N 67°31' E 013°44'510.6
2017-Aug-22 10:30N 67°36' E 013°47'510.6
2017-Aug-22 10:00N 67°41' E 013°50'510.4
2017-Aug-22 09:30N 67°46' E 013°53'510.3
2017-Aug-22 09:00N 67°51' E 013°56'510.6
2017-Aug-22 08:30N 67°56' E 013°60'510.8
2017-Aug-22 08:00N 68°01' E 014°03'511.2
2017-Aug-22 07:30N 68°07' E 014°06'611.1
2017-Aug-22 07:00N 68°12' E 014°10'612.2
2017-Aug-22 06:30N 68°18' E 014°17'611.3
2017-Aug-22 06:00N 68°23' E 014°18'510.8
2017-Aug-22 05:30N 68°29' E 014°19'510.6
2017-Aug-22 05:00N 68°34' E 014°21'510.6
2017-Aug-22 04:30N 68°39' E 014°23'5 9.2
2017-Aug-22 04:00N 68°44' E 014°23'5 9.7
2017-Aug-22 03:30N 68°48' E 014°27'510.3
2017-Aug-22 03:00N 68°51' E 014°39'510.5
2017-Aug-22 02:30N 68°52' E 014°54'5 9.7
2017-Aug-22 02:00N 68°55' E 015°04'0 0.1
2017-Aug-22 01:30N 68°55' E 015°04'0 0.0
2017-Aug-22 01:00N 68°55' E 015°04'0 0.0
2017-Aug-22 00:30N 68°55' E 015°04'0 0.0
2017-Aug-22 00:00N 68°55' E 015°04'0 0.0
2017-Aug-21 23:30N 68°55' E 015°04'0 0.0
2017-Aug-21 23:00N 68°55' E 015°04'0 0.0
2017-Aug-21 22:30N 68°55' E 015°04'0 0.0
2017-Aug-21 22:00N 68°55' E 015°04'0 0.0
2017-Aug-21 21:31N 68°55' E 015°04'0 0.0
2017-Aug-21 21:00N 68°55' E 015°04'0 0.0
2017-Aug-21 20:30N 68°55' E 015°04'0 0.0
2017-Aug-21 20:00N 68°55' E 015°04'0 0.0
2017-Aug-21 19:30N 68°55' E 015°04'0 0.0
2017-Aug-21 18:59N 68°55' E 015°04'0 0.3
2017-Aug-21 18:30N 68°55' E 015°03'1 2.7
2017-Aug-21 18:01N 68°55' E 015°00'611.3
2017-Aug-21 17:31N 69°01' E 015°01'5 9.5
2017-Aug-21 17:00N 69°01' E 015°14'5 9.6
2017-Aug-21 16:31N 68°57' E 015°20'611.0
2017-Aug-21 16:00N 68°52' E 015°29'511.0
2017-Aug-21 15:30N 68°57' E 015°36'5 9.9
2017-Aug-21 15:00N 68°59' E 015°49'511.2
2017-Aug-21 14:30N 68°58' E 016°04'611.7
2017-Aug-21 14:00N 68°55' E 016°19'612.1
2017-Aug-21 13:31N 68°52' E 016°33'510.6
2017-Aug-21 13:00N 68°48' E 016°41'611.0
2017-Aug-21 12:30N 68°42' E 016°40'612.1
2017-Aug-21 12:00N 68°37' E 016°33'510.2
2017-Aug-21 11:30N 68°34' E 016°22'511.1
2017-Aug-21 11:00N 68°31' E 016°09'611.0
2017-Aug-21 10:29N 68°25' E 016°04'3 6.9
2017-Aug-21 09:59N 68°24' E 016°13'1 2.5
2017-Aug-21 09:30N 68°24' E 016°16'612.0
2017-Aug-21 09:00N 68°25' E 016°32'611.7
2017-Aug-21 08:30N 68°25' E 016°48'5 9.0
2017-Aug-21 08:00N 68°21' E 016°54'2 3.3
2017-Aug-21 07:30N 68°22' E 016°57'611.0
2017-Aug-21 07:00N 68°25' E 017°10'510.8
2017-Aug-21 06:31N 68°25' E 017°25'0 0.8
2017-Aug-21 06:00N 68°25' E 017°26'2 3.0
2017-Aug-21 05:30N 68°26' E 017°22'611.6
2017-Aug-21 05:00N 68°26' E 017°06'611.4
2017-Aug-21 04:30N 68°26' E 016°51'611.3
2017-Aug-21 04:00N 68°26' E 016°35'510.6
2017-Aug-21 03:30N 68°24' E 016°21'510.8
2017-Aug-21 03:00N 68°23' E 016°07'4 7.1
2017-Aug-21 02:30N 68°25' E 016°00'611.6
2017-Aug-21 02:00N 68°30' E 016°09'510.9
2017-Aug-21 01:30N 68°34' E 016°20'5 9.2
2017-Aug-21 01:00N 68°35' E 016°32'1 1.3
2017-Aug-21 00:30N 68°35' E 016°34'4 9.1
2017-Aug-21 00:00N 68°39' E 016°37'611.7
2017-Aug-20 23:30N 68°44' E 016°45'611.8
2017-Aug-20 23:00N 68°50' E 016°54'611.7
2017-Aug-20 22:30N 68°54' E 017°03'611.6
2017-Aug-20 22:00N 68°59' E 017°12'612.0
2017-Aug-20 21:30N 69°04' E 017°22'611.8
2017-Aug-20 21:00N 69°07' E 017°36'612.0
2017-Aug-20 20:30N 69°09' E 017°52'4 9.0
2017-Aug-20 20:00N 69°13' E 017°59'5 9.1
2017-Aug-20 19:30N 69°18' E 017°58'611.1
2017-Aug-20 19:00N 69°23' E 018°05'611.6
2017-Aug-20 18:30N 69°28' E 018°09'611.5
2017-Aug-20 18:00N 69°31' E 018°24'611.9
2017-Aug-20 17:30N 69°33' E 018°40'611.4
2017-Aug-20 17:00N 69°36' E 018°53'611.1
2017-Aug-20 16:30N 69°41' E 019°01'611.1
2017-Aug-20 16:00N 69°46' E 019°10'611.8
2017-Aug-20 15:30N 69°49' E 019°25'611.9
2017-Aug-20 15:00N 69°51' E 019°41'612.1
2017-Aug-20 14:30N 69°54' E 019°56'612.0
2017-Aug-20 14:00N 69°58' E 020°10'511.2
2017-Aug-20 13:30N 69°60' E 020°24'611.8
2017-Aug-20 13:00N 70°02' E 020°41'611.1
2017-Aug-20 12:30N 70°05' E 020°55'611.9
2017-Aug-20 12:00N 70°10' E 021°03'611.3
2017-Aug-20 11:30N 70°15' E 021°12'611.2
2017-Aug-20 10:59N 70°18' E 021°25'510.9
2017-Aug-20 10:30N 70°22' E 021°36'5 9.3
2017-Aug-20 10:00N 70°22' E 021°50'611.8
2017-Aug-20 09:30N 70°20' E 022°05'611.1
2017-Aug-20 09:00N 70°16' E 022°19'2 4.3
2017-Aug-20 08:30N 70°14' E 022°21'2 4.7
2017-Aug-20 08:00N 70°16' E 022°19'510.0
2017-Aug-20 07:30N 70°19' E 022°06'611.0
2017-Aug-20 06:59N 70°22' E 021°52'5 9.4
2017-Aug-20 06:30N 70°23' E 021°38'611.3
2017-Aug-20 06:00N 70°19' E 021°27'510.4
2017-Aug-20 05:30N 70°15' E 021°15'510.4
2017-Aug-20 05:00N 70°11' E 021°06'510.5
2017-Aug-20 04:29N 70°07' E 020°58'611.0
2017-Aug-20 03:59N 70°03' E 020°47'510.9
2017-Aug-20 03:29N 70°01' E 020°32'611.7
2017-Aug-20 03:00N 69°59' E 020°16'510.8
2017-Aug-20 02:30N 69°56' E 020°03'510.5
2017-Aug-20 02:00N 69°53' E 019°51'610.8
2017-Aug-20 01:30N 69°50' E 019°37'511.0
2017-Aug-20 01:00N 69°48' E 019°22'611.0
2017-Aug-20 00:30N 69°45' E 019°08'611.1
2017-Aug-20 00:00N 69°41' E 018°60'0 0.7
2017-Aug-19 23:30N 69°41' E 018°59'0 0.2
2017-Aug-19 23:00N 69°41' E 018°59'0 0.2
2017-Aug-19 22:30N 69°41' E 018°59'3 5.3
2017-Aug-19 22:00N 69°38' E 018°57'611.2
2017-Aug-19 21:30N 69°34' E 018°47'612.4
2017-Aug-19 21:00N 69°32' E 018°30'611.1
2017-Aug-19 20:30N 69°29' E 018°16'5 9.9
2017-Aug-19 20:00N 69°25' E 018°07'510.6
2017-Aug-19 19:30N 69°20' E 018°03'510.4
2017-Aug-19 19:00N 69°15' E 017°58'1 2.6
2017-Aug-19 18:30N 69°14' E 017°58'0 0.0
2017-Aug-19 18:00N 69°14' E 017°58'1 1.2
2017-Aug-19 17:30N 69°14' E 017°59'3 6.9
2017-Aug-19 17:00N 69°10' E 017°58'510.8
2017-Aug-19 16:30N 69°08' E 017°44'511.0
2017-Aug-19 16:00N 69°06' E 017°29'611.0
2017-Aug-19 15:30N 69°02' E 017°18'611.2
2017-Aug-19 15:00N 68°58' E 017°08'1111.2
2017-Aug-19 14:00N 68°50' E 016°45'5 9.8
2017-Aug-19 13:30N 68°47' E 016°36'1 1.3
2017-Aug-19 13:00N 68°47' E 016°36'1 2.6
2017-Aug-19 12:30N 68°48' E 016°33'0 0.0
2017-Aug-19 11:59N 68°48' E 016°33'0 0.0
2017-Aug-19 11:30N 68°48' E 016°33'0 0.0
2017-Aug-19 11:00N 68°48' E 016°33'3 6.4
2017-Aug-19 10:29N 68°51' E 016°35'510.8
2017-Aug-19 10:00N 68°54' E 016°23'510.8
2017-Aug-19 09:30N 68°57' E 016°10'611.0
2017-Aug-19 08:59N 68°59' E 015°56'510.5
2017-Aug-19 08:30N 68°58' E 015°41'1 2.0
2017-Aug-19 08:00N 68°58' E 015°39'5 9.5
2017-Aug-19 07:29N 68°54' E 015°33'510.9
2017-Aug-19 07:00N 68°49' E 015°27'611.4
2017-Aug-19 06:30N 68°43' E 015°25'1 2.5
2017-Aug-19 06:00N 68°42' E 015°25'0 0.0
2017-Aug-19 05:30N 68°42' E 015°25'0 0.0
2017-Aug-19 05:00N 68°42' E 015°25'1 1.0
2017-Aug-19 04:29N 68°41' E 015°26'510.9
2017-Aug-19 04:00N 68°37' E 015°18'510.8
2017-Aug-19 03:30N 68°32' E 015°10'5 9.9
2017-Aug-19 03:00N 68°28' E 015°12'5 9.9
2017-Aug-19 02:30N 68°23' E 015°05'510.8
2017-Aug-19 02:00N 68°18' E 014°58'510.6
2017-Aug-19 01:30N 68°13' E 014°53'5 9.6
2017-Aug-19 01:00N 68°14' E 014°40'2 4.5
2017-Aug-19 00:30N 68°14' E 014°35'2 3.6
2017-Aug-18 23:59N 68°12' E 014°32'510.6
2017-Aug-18 23:29N 68°10' E 014°19'510.8
2017-Aug-18 23:00N 68°07' E 014°07'510.4
2017-Aug-18 22:30N 68°06' E 013°54'510.3
2017-Aug-18 22:00N 68°04' E 013°41'4 9.0
2017-Aug-18 21:30N 68°08' E 013°34'1 1.0
2017-Aug-18 21:00N 68°08' E 013°36'1 1.1
2017-Aug-18 20:30N 68°08' E 013°37'0 0.0
2017-Aug-18 20:00N 68°08' E 013°37'0 0.8
2017-Aug-18 19:29N 68°08' E 013°36'510.3
2017-Aug-18 19:00N 68°03' E 013°38'510.7
2017-Aug-18 18:30N 67°58' E 013°42'611.0
2017-Aug-18 18:00N 67°52' E 013°47'611.4
2017-Aug-18 17:30N 67°47' E 013°52'511.2
2017-Aug-18 17:00N 67°42' E 013°56'611.5
2017-Aug-18 16:30N 67°36' E 014°01'611.5
2017-Aug-18 16:00N 67°31' E 014°06'611.2
2017-Aug-18 15:30N 67°25' E 014°10'611.2
2017-Aug-18 15:00N 67°20' E 014°13'5 9.2
2017-Aug-18 14:30N 67°16' E 014°21'1 0.6
2017-Aug-18 13:30N 67°16' E 014°19'510.6
2017-Aug-18 13:00N 67°12' E 014°09'511.0
2017-Aug-18 12:30N 67°08' E 014°01'511.0
2017-Aug-18 12:00N 67°04' E 013°52'611.0
2017-Aug-18 11:30N 67°00' E 013°41'510.6
2017-Aug-18 11:00N 66°57' E 013°30'510.1
2017-Aug-18 10:30N 66°53' E 013°23'510.9
2017-Aug-18 10:00N 66°49' E 013°15'3 5.4
2017-Aug-18 09:30N 66°47' E 013°10'510.3
2017-Aug-18 09:00N 66°45' E 012°58'510.7
2017-Aug-18 08:30N 66°46' E 012°45'510.4
2017-Aug-18 08:00N 66°46' E 012°31'1 2.3
2017-Aug-18 07:30N 66°46' E 012°29'4 7.1
2017-Aug-18 06:59N 66°42' E 012°33'510.8
2017-Aug-18 06:30N 66°38' E 012°41'611.5
2017-Aug-18 06:00N 66°33' E 012°44'611.3
2017-Aug-18 05:30N 66°27' E 012°47'4 7.1
2017-Aug-18 05:00N 66°24' E 012°50'0 0.0
2017-Aug-18 04:30N 66°24' E 012°50'0 0.0
2017-Aug-18 04:00N 66°24' E 012°50'4 7.4
2017-Aug-18 03:30N 66°22' E 012°42'611.5
2017-Aug-18 03:00N 66°16' E 012°39'611.8
2017-Aug-18 02:30N 66°10' E 012°40'611.2
2017-Aug-18 02:00N 66°05' E 012°40'3 6.2
2017-Aug-18 01:30N 66°01' E 012°38'2 4.1
2017-Aug-18 01:00N 66°01' E 012°34'611.2
2017-Aug-18 00:30N 65°56' E 012°25'510.9
2017-Aug-18 00:00N 65°51' E 012°22'611.1
2017-Aug-17 23:30N 65°46' E 012°19'611.5
2017-Aug-17 23:00N 65°40' E 012°16'711.5
2017-Aug-17 22:26N 65°34' E 012°13'511.0
2017-Aug-17 21:59N 65°29' E 012°13'0 0.9
2017-Aug-17 21:30N 65°28' E 012°12'4 8.2
2017-Aug-17 21:00N 65°25' E 012°08'611.0
2017-Aug-17 20:30N 65°20' E 012°02'611.6
2017-Aug-17 20:00N 65°15' E 011°56'611.3
2017-Aug-17 19:30N 65°09' E 011°50'611.3
2017-Aug-17 19:00N 65°04' E 011°45'510.8
2017-Aug-17 18:30N 65°00' E 011°37'510.9
2017-Aug-17 18:00N 64°56' E 011°28'611.7
2017-Aug-17 17:30N 64°53' E 011°17'2 4.4
2017-Aug-17 17:00N 64°51' E 011°13'611.4
2017-Aug-17 16:30N 64°47' E 011°05'611.0
2017-Aug-17 16:00N 64°41' E 011°07'510.3
2017-Aug-17 15:30N 64°37' E 011°15'510.9
2017-Aug-17 15:00N 64°33' E 011°23'5 9.1
2017-Aug-17 14:30N 64°29' E 011°25'2 4.8
2017-Aug-17 14:00N 64°28' E 011°30'0 0.0
2017-Aug-17 13:30N 64°28' E 011°30'0 0.0
2017-Aug-17 13:00N 64°28' E 011°30'0 0.0
2017-Aug-17 12:30N 64°28' E 011°30'0 0.0
2017-Aug-17 12:00N 64°28' E 011°30'0 0.0
2017-Aug-17 11:30N 64°28' E 011°30'0 0.0
2017-Aug-17 11:00N 64°28' E 011°30'0 0.0
2017-Aug-17 10:29N 64°28' E 011°30'0 0.0
2017-Aug-17 10:00N 64°28' E 011°30'0 0.0
2017-Aug-17 09:29N 64°28' E 011°30'0 0.0
2017-Aug-17 09:00N 64°28' E 011°30'0 0.0
2017-Aug-17 08:30N 64°28' E 011°30'0 0.0
2017-Aug-17 08:00N 64°28' E 011°30'0 0.0
2017-Aug-17 07:29N 64°28' E 011°30'0 0.0
2017-Aug-17 07:00N 64°28' E 011°30'0 0.0
2017-Aug-17 06:30N 64°28' E 011°30'0 0.0
2017-Aug-17 06:00N 64°28' E 011°30'0 0.0
2017-Aug-17 05:30N 64°28' E 011°30'0 0.0
2017-Aug-17 05:00N 64°28' E 011°30'0 0.0
2017-Aug-17 04:30N 64°28' E 011°30'0 0.0
2017-Aug-17 04:00N 64°28' E 011°30'0 0.0
2017-Aug-17 03:30N 64°28' E 011°30'0 0.0
2017-Aug-17 03:00N 64°28' E 011°30'0 0.0
2017-Aug-17 02:30N 64°28' E 011°30'0 0.0
2017-Aug-17 02:00N 64°28' E 011°30'0 0.0
2017-Aug-17 01:30N 64°28' E 011°30'0 0.0
2017-Aug-17 01:00N 64°28' E 011°30'0 0.0
2017-Aug-17 00:30N 64°28' E 011°30'0 0.0
2017-Aug-17 00:00N 64°28' E 011°30'0 0.0
2017-Aug-16 23:30N 64°28' E 011°30'0 0.0
2017-Aug-16 23:00N 64°28' E 011°30'2 3.7
2017-Aug-16 22:30N 64°27' E 011°26'510.8
2017-Aug-16 22:00N 64°30' E 011°15'510.4
2017-Aug-16 21:30N 64°33' E 011°07'510.0
2017-Aug-16 21:00N 64°36' E 010°58'611.4
2017-Aug-16 20:30N 64°34' E 010°45'511.1
2017-Aug-16 20:00N 64°31' E 010°35'611.5
2017-Aug-16 19:30N 64°26' E 010°27'611.1
2017-Aug-16 19:00N 64°21' E 010°27'511.2
2017-Aug-16 18:30N 64°16' E 010°19'611.3
2017-Aug-16 18:00N 64°12' E 010°11'611.7
2017-Aug-16 17:30N 64°07' E 010°02'611.9
2017-Aug-16 17:00N 64°04' E 009°51'611.2
2017-Aug-16 16:29N 63°58' E 009°47'511.3
2017-Aug-16 16:00N 63°53' E 009°44'611.8
2017-Aug-16 15:30N 63°48' E 009°35'611.5
2017-Aug-16 15:00N 63°43' E 009°32'510.7
2017-Aug-16 14:30N 63°38' E 009°30'510.8
2017-Aug-16 14:00N 63°39' E 009°42'5 9.3
2017-Aug-16 13:29N 63°36' E 009°50'611.8
2017-Aug-16 13:00N 63°31' E 009°55'510.9
2017-Aug-16 12:30N 63°28' E 010°06'611.3
2017-Aug-16 12:00N 63°28' E 010°19'3 6.1
2017-Aug-16 11:30N 63°27' E 010°25'0 0.0
2017-Aug-16 11:00N 63°27' E 010°25'0 0.0
2017-Aug-16 10:30N 63°27' E 010°25'0 0.0
2017-Aug-16 10:00N 63°27' E 010°25'0 0.0
2017-Aug-16 09:30N 63°27' E 010°25'0 0.9
2017-Aug-16 09:00N 63°27' E 010°25'611.6
2017-Aug-16 08:30N 63°28' E 010°12'611.9
2017-Aug-16 08:00N 63°29' E 009°59'610.7
2017-Aug-16 07:30N 63°33' E 009°51'611.3
2017-Aug-16 07:00N 63°39' E 009°46'510.9
2017-Aug-16 06:30N 63°38' E 009°34'3 6.7
2017-Aug-16 06:00N 63°41' E 009°29'611.0
2017-Aug-16 05:30N 63°46' E 009°33'611.3
2017-Aug-16 05:00N 63°51' E 009°39'611.0
2017-Aug-16 04:29N 63°54' E 009°50'611.3
2017-Aug-16 04:00N 63°59' E 009°56'510.9
2017-Aug-16 03:30N 64°03' E 010°03'5 9.3
2017-Aug-16 03:00N 64°08' E 010°05'510.8
2017-Aug-16 02:30N 64°12' E 010°11'510.3
2017-Aug-16 02:00N 64°16' E 010°20'610.9
2017-Aug-16 01:30N 64°22' E 010°22'510.7
2017-Aug-16 01:00N 64°27' E 010°27'510.7
2017-Aug-16 00:30N 64°31' E 010°35'510.5
2017-Aug-16 00:00N 64°34' E 010°44'4 8.4
2017-Aug-15 23:30N 64°32' E 010°52'0 0.0
2017-Aug-15 23:00N 64°32' E 010°52'0 0.0
2017-Aug-15 22:30N 64°32' E 010°52'1 2.2
2017-Aug-15 22:00N 64°34' E 010°53'510.7
2017-Aug-15 21:30N 64°39' E 010°51'611.0
2017-Aug-15 20:59N 64°44' E 010°58'511.0
2017-Aug-15 20:30N 64°48' E 011°06'510.8
2017-Aug-15 20:00N 64°52' E 011°15'0 0.9
2017-Aug-15 19:30N 64°52' E 011°16'1 1.0
2017-Aug-15 19:00N 64°51' E 011°17'0 0.0
2017-Aug-15 18:30N 64°51' E 011°17'0 0.0
2017-Aug-15 18:00N 64°51' E 011°17'4 8.6
2017-Aug-15 17:30N 64°55' E 011°23'511.0
2017-Aug-15 17:00N 64°58' E 011°33'510.8
2017-Aug-15 16:30N 65°02' E 011°42'510.9
2017-Aug-15 16:00N 65°07' E 011°48'611.0
2017-Aug-15 15:30N 65°12' E 011°53'510.6
2017-Aug-15 15:00N 65°17' E 011°58'611.0
2017-Aug-15 14:30N 65°22' E 012°04'611.1
2017-Aug-15 13:56N 65°27' E 012°11'5 9.1
2017-Aug-15 13:22N 65°32' E 012°13'410.9
2017-Aug-15 12:57N 65°37' E 012°14'510.8
2017-Aug-15 12:30N 65°42' E 012°16'811.1
2017-Aug-15 11:45N 65°50' E 012°21'311.1
2017-Aug-15 11:30N 65°53' E 012°22'610.8
2017-Aug-15 11:00N 65°58' E 012°27'511.1
2017-Aug-15 10:30N 66°02' E 012°36'2 3.9
2017-Aug-15 10:00N 66°03' E 012°39'510.9
2017-Aug-15 09:30N 66°08' E 012°46'510.8
2017-Aug-15 09:00N 66°13' E 012°52'610.9
2017-Aug-15 08:30N 66°18' E 012°56'510.3
2017-Aug-15 08:00N 66°23' E 012°58'510.0
2017-Aug-15 07:30N 66°28' E 012°59'5 9.8
2017-Aug-15 07:00N 66°33' E 013°01'5 9.8
2017-Aug-15 06:30N 66°37' E 013°05'510.4
2017-Aug-15 06:00N 66°42' E 013°09'510.2
2017-Aug-15 05:30N 66°47' E 013°14'4 7.7
2017-Aug-15 05:00N 66°51' E 013°18'5 9.7
2017-Aug-15 04:30N 66°55' E 013°20'510.4
2017-Aug-15 04:00N 67°00' E 013°21'510.5
2017-Aug-15 03:30N 67°06' E 013°22'510.1
2017-Aug-15 03:00N 67°11' E 013°23'510.2
2017-Aug-15 02:30N 67°16' E 013°24'510.1
2017-Aug-15 02:00N 67°21' E 013°26'510.2
2017-Aug-15 01:30N 67°26' E 013°27'510.3
2017-Aug-15 01:00N 67°31' E 013°28'510.4
2017-Aug-15 00:30N 67°36' E 013°29'510.3
2017-Aug-15 00:00N 67°41' E 013°30'510.5
2017-Aug-14 23:30N 67°47' E 013°32'510.5
2017-Aug-14 23:00N 67°52' E 013°33'510.4
2017-Aug-14 22:30N 67°57' E 013°34'510.4
2017-Aug-14 22:00N 68°02' E 013°35'510.5
2017-Aug-14 21:30N 68°07' E 013°34'0 0.3
2017-Aug-14 21:00N 68°08' E 013°34'0 0.0
2017-Aug-14 20:30N 68°08' E 013°34'2 5.0
2017-Aug-14 20:00N 68°05' E 013°36'4 8.2
2017-Aug-14 19:30N 68°05' E 013°47'510.2
2017-Aug-14 19:00N 68°06' E 013°59'5 9.9
2017-Aug-14 18:30N 68°08' E 014°12'510.1
2017-Aug-14 17:59N 68°11' E 014°23'510.1
2017-Aug-14 17:30N 68°13' E 014°36'5 9.5
2017-Aug-14 17:00N 68°13' E 014°48'4 8.7
2017-Aug-14 16:29N 68°15' E 014°59'510.1
2017-Aug-14 16:00N 68°18' E 015°10'5 9.6
2017-Aug-14 15:30N 68°20' E 015°21'19 8.1
2017-Aug-14 13:06N 68°24' E 016°13'0 0.0
2017-Aug-14 13:00N 68°24' E 016°13'0 0.0
2017-Aug-14 12:30N 68°24' E 016°13'2 3.8
2017-Aug-14 11:59N 68°23' E 016°09'4 8.0
2017-Aug-14 11:30N 68°27' E 016°05'510.4
2017-Aug-14 11:00N 68°31' E 016°11'510.2
2017-Aug-14 10:30N 68°34' E 016°23'4 8.9
2017-Aug-14 10:00N 68°36' E 016°33'510.2
2017-Aug-14 09:30N 68°41' E 016°39'5 9.7
2017-Aug-14 09:00N 68°45' E 016°37'3 5.2
2017-Aug-14 08:30N 68°48' E 016°33'3 6.1
2017-Aug-14 08:00N 68°50' E 016°39'510.6
2017-Aug-14 07:30N 68°53' E 016°50'510.3
2017-Aug-14 07:00N 68°56' E 017°01'5 9.5
2017-Aug-14 06:30N 68°59' E 017°11'5 9.5
2017-Aug-14 06:00N 69°03' E 017°20'5 9.5
2017-Aug-14 05:30N 69°06' E 017°30'510.0
2017-Aug-14 05:00N 69°08' E 017°43'5 9.9
2017-Aug-14 04:30N 69°10' E 017°56'4 7.7
2017-Aug-14 04:00N 69°14' E 017°58'5 9.7
2017-Aug-14 03:30N 69°19' E 017°58'5 9.2
2017-Aug-14 02:59N 69°23' E 018°05'510.0
2017-Aug-14 02:29N 69°28' E 018°07'5 9.7
2017-Aug-14 01:59N 69°30' E 018°19'510.1
2017-Aug-14 01:30N 69°32' E 018°32'4 8.6
2017-Aug-14 01:00N 69°33' E 018°44'4 8.9
2017-Aug-14 00:30N 69°36' E 018°53'5 9.4
2017-Aug-14 00:00N 69°40' E 019°00'510.1
2017-Aug-13 23:30N 69°45' E 019°07'510.2
2017-Aug-13 23:00N 69°48' E 019°19'510.2
2017-Aug-13 22:30N 69°50' E 019°33'510.4
2017-Aug-13 22:00N 69°52' E 019°47'510.5
2017-Aug-13 21:30N 69°55' E 019°59'510.1
2017-Aug-13 21:00N 69°58' E 020°11'510.2
2017-Aug-13 20:30N 69°60' E 020°24'510.8
2017-Aug-13 20:00N 70°02' E 020°39'510.9
2017-Aug-13 19:30N 70°04' E 020°54'510.6
2017-Aug-13 19:00N 70°09' E 021°01'510.4
2017-Aug-13 18:30N 70°13' E 021°09'510.5
2017-Aug-13 17:59N 70°17' E 021°20'510.2
2017-Aug-13 17:30N 70°20' E 021°31'5 9.9
2017-Aug-13 17:00N 70°24' E 021°42'510.0
2017-Aug-13 16:30N 70°22' E 021°56'510.5
2017-Aug-13 16:00N 70°19' E 022°09'5 9.9
2017-Aug-13 15:30N 70°16' E 022°20'1 2.9
2017-Aug-13 15:00N 70°14' E 022°21'0 0.0
2017-Aug-13 14:30N 70°14' E 022°21'0 0.0
2017-Aug-13 14:00N 70°14' E 022°21'0 0.0
2017-Aug-13 13:30N 70°14' E 022°21'0 0.0
2017-Aug-13 13:00N 70°14' E 022°21'0 0.0
2017-Aug-13 12:30N 70°14' E 022°21'0 0.0
2017-Aug-13 12:00N 70°14' E 022°21'0 0.0
2017-Aug-13 11:30N 70°14' E 022°21'0 0.0
2017-Aug-13 11:00N 70°14' E 022°21'0 0.0
2017-Aug-13 10:30N 70°14' E 022°21'0 0.0
2017-Aug-13 10:00N 70°14' E 022°21'0 0.0
2017-Aug-13 09:30N 70°14' E 022°21'0 0.0
2017-Aug-13 09:00N 70°14' E 022°21'0 0.0
2017-Aug-13 08:30N 70°14' E 022°21'0 0.0
2017-Aug-13 07:59N 70°14' E 022°21'0 0.0
2017-Aug-13 07:30N 70°14' E 022°21'0 0.0
2017-Aug-13 07:00N 70°14' E 022°21'0 0.0
2017-Aug-13 06:30N 70°14' E 022°21'5 9.4
2017-Aug-13 06:00N 70°18' E 022°12'611.6
2017-Aug-13 05:30N 70°21' E 021°58'611.8
2017-Aug-13 05:00N 70°24' E 021°42'612.0
2017-Aug-13 04:30N 70°20' E 021°29'  

Dump ship's entire track history